sensor_id;sensor_type;location;lat;lon;timestamp;P1;durP1;ratioP1;P2;durP2;ratioP2
31872;SDS011;22407;42.820;23.374;2023-03-23T00:01:05;15.73;;;6.65;;
31872;SDS011;22407;42.820;23.374;2023-03-23T00:03:30;15.60;;;6.97;;
31872;SDS011;22407;42.820;23.374;2023-03-23T00:05:59;15.95;;;6.80;;
31872;SDS011;22407;42.820;23.374;2023-03-23T00:08:30;18.17;;;7.20;;
31872;SDS011;22407;42.820;23.374;2023-03-23T00:10:55;19.67;;;8.57;;
31872;SDS011;22407;42.820;23.374;2023-03-23T00:13:23;21.38;;;7.68;;
31872;SDS011;22407;42.820;23.374;2023-03-23T00:15:49;17.20;;;7.65;;
31872;SDS011;22407;42.820;23.374;2023-03-23T00:18:17;17.08;;;6.75;;
31872;SDS011;22407;42.820;23.374;2023-03-23T00:20:46;16.13;;;6.63;;
31872;SDS011;22407;42.820;23.374;2023-03-23T00:23:14;14.27;;;5.65;;
31872;SDS011;22407;42.820;23.374;2023-03-23T00:25:44;17.05;;;6.47;;
31872;SDS011;22407;42.820;23.374;2023-03-23T00:28:10;14.88;;;6.30;;
31872;SDS011;22407;42.820;23.374;2023-03-23T00:30:37;17.33;;;7.22;;
31872;SDS011;22407;42.820;23.374;2023-03-23T00:33:03;19.63;;;8.13;;
31872;SDS011;22407;42.820;23.374;2023-03-23T00:35:29;22.08;;;8.40;;
31872;SDS011;22407;42.820;23.374;2023-03-23T00:37:55;22.37;;;9.20;;
31872;SDS011;22407;42.820;23.374;2023-03-23T00:40:21;21.10;;;8.43;;
31872;SDS011;22407;42.820;23.374;2023-03-23T00:42:46;19.53;;;6.27;;
31872;SDS011;22407;42.820;23.374;2023-03-23T00:45:13;21.00;;;8.40;;
31872;SDS011;22407;42.820;23.374;2023-03-23T00:47:39;23.10;;;9.35;;
31872;SDS011;22407;42.820;23.374;2023-03-23T00:50:07;19.33;;;7.82;;
31872;SDS011;22407;42.820;23.374;2023-03-23T00:52:32;18.47;;;7.80;;
31872;SDS011;22407;42.820;23.374;2023-03-23T00:54:57;17.67;;;8.07;;
31872;SDS011;22407;42.820;23.374;2023-03-23T00:57:23;19.03;;;7.57;;
31872;SDS011;22407;42.820;23.374;2023-03-23T00:59:52;19.58;;;7.63;;
31872;SDS011;22407;42.820;23.374;2023-03-23T01:02:17;17.10;;;8.18;;
31872;SDS011;22407;42.820;23.374;2023-03-23T01:04:44;19.77;;;7.87;;
31872;SDS011;22407;42.820;23.374;2023-03-23T01:07:10;20.60;;;8.47;;
31872;SDS011;22407;42.820;23.374;2023-03-23T01:09:37;19.53;;;8.30;;
31872;SDS011;22407;42.820;23.374;2023-03-23T01:12:05;22.95;;;9.93;;
31872;SDS011;22407;42.820;23.374;2023-03-23T01:14:30;24.35;;;9.43;;
31872;SDS011;22407;42.820;23.374;2023-03-23T01:16:56;21.87;;;10.83;;
31872;SDS011;22407;42.820;23.374;2023-03-23T01:19:21;22.73;;;9.30;;
31872;SDS011;22407;42.820;23.374;2023-03-23T01:21:47;19.45;;;8.25;;
31872;SDS011;22407;42.820;23.374;2023-03-23T01:24:12;18.13;;;8.53;;
31872;SDS011;22407;42.820;23.374;2023-03-23T01:26:38;20.50;;;8.47;;
31872;SDS011;22407;42.820;23.374;2023-03-23T01:29:03;16.87;;;7.90;;
31872;SDS011;22407;42.820;23.374;2023-03-23T01:31:28;20.53;;;9.00;;
31872;SDS011;22407;42.820;23.374;2023-03-23T01:33:54;18.57;;;7.10;;
31872;SDS011;22407;42.820;23.374;2023-03-23T01:36:24;18.70;;;8.00;;
31872;SDS011;22407;42.820;23.374;2023-03-23T01:38:51;17.45;;;8.30;;
31872;SDS011;22407;42.820;23.374;2023-03-23T01:41:17;20.10;;;9.65;;
31872;SDS011;22407;42.820;23.374;2023-03-23T01:43:56;15.83;;;6.80;;
31872;SDS011;22407;42.820;23.374;2023-03-23T01:46:22;18.88;;;6.88;;
31872;SDS011;22407;42.820;23.374;2023-03-23T01:48:48;19.47;;;6.60;;
31872;SDS011;22407;42.820;23.374;2023-03-23T01:51:14;16.75;;;7.28;;
31872;SDS011;22407;42.820;23.374;2023-03-23T01:53:46;15.27;;;6.47;;
31872;SDS011;22407;42.820;23.374;2023-03-23T01:56:12;15.57;;;5.55;;
31872;SDS011;22407;42.820;23.374;2023-03-23T01:58:39;17.55;;;6.70;;
31872;SDS011;22407;42.820;23.374;2023-03-23T02:01:06;14.07;;;6.00;;
31872;SDS011;22407;42.820;23.374;2023-03-23T02:03:32;16.88;;;6.60;;
31872;SDS011;22407;42.820;23.374;2023-03-23T02:05:59;18.38;;;7.28;;
31872;SDS011;22407;42.820;23.374;2023-03-23T02:08:26;15.73;;;6.50;;
31872;SDS011;22407;42.820;23.374;2023-03-23T02:10:53;16.65;;;6.85;;
31872;SDS011;22407;42.820;23.374;2023-03-23T02:13:18;17.27;;;7.30;;
31872;SDS011;22407;42.820;23.374;2023-03-23T02:18:52;50.70;;;20.85;;
31872;SDS011;22407;42.820;23.374;2023-03-23T02:26:11;51.77;;;21.23;;
31872;SDS011;22407;42.820;23.374;2023-03-23T02:28:46;49.90;;;18.25;;
31872;SDS011;22407;42.820;23.374;2023-03-23T02:36:36;48.55;;;17.50;;
31872;SDS011;22407;42.820;23.374;2023-03-23T02:44:32;49.38;;;19.30;;
31872;SDS011;22407;42.820;23.374;2023-03-23T02:46:59;50.70;;;18.97;;
31872;SDS011;22407;42.820;23.374;2023-03-23T02:49:25;48.78;;;18.27;;
31872;SDS011;22407;42.820;23.374;2023-03-23T02:51:52;46.75;;;17.75;;
31872;SDS011;22407;42.820;23.374;2023-03-23T02:54:18;47.38;;;18.50;;
31872;SDS011;22407;42.820;23.374;2023-03-23T02:56:47;47.47;;;18.10;;
31872;SDS011;22407;42.820;23.374;2023-03-23T02:59:13;30.27;;;13.38;;
31872;SDS011;22407;42.820;23.374;2023-03-23T03:04:06;23.43;;;10.73;;
31872;SDS011;22407;42.820;23.374;2023-03-23T03:09:20;18.33;;;6.97;;
31872;SDS011;22407;42.820;23.374;2023-03-23T03:11:50;18.40;;;7.35;;
31872;SDS011;22407;42.820;23.374;2023-03-23T03:14:20;16.87;;;6.80;;
31872;SDS011;22407;42.820;23.374;2023-03-23T03:17:07;18.48;;;6.78;;
31872;SDS011;22407;42.820;23.374;2023-03-23T03:19:39;18.77;;;7.18;;
31872;SDS011;22407;42.820;23.374;2023-03-23T03:22:05;18.13;;;7.47;;
31872;SDS011;22407;42.820;23.374;2023-03-23T03:24:32;19.52;;;9.23;;
31872;SDS011;22407;42.820;23.374;2023-03-23T03:26:58;66.10;;;23.40;;
31872;SDS011;22407;42.820;23.374;2023-03-23T03:29:26;47.45;;;20.05;;
31872;SDS011;22407;42.820;23.374;2023-03-23T03:31:54;50.05;;;20.13;;
31872;SDS011;22407;42.820;23.374;2023-03-23T03:34:20;35.78;;;14.82;;
31872;SDS011;22407;42.820;23.374;2023-03-23T03:36:47;44.17;;;18.40;;
31872;SDS011;22407;42.820;23.374;2023-03-23T03:39:14;32.20;;;13.93;;
31872;SDS011;22407;42.820;23.374;2023-03-23T03:41:41;34.00;;;13.35;;
31872;SDS011;22407;42.820;23.374;2023-03-23T03:44:06;23.45;;;9.35;;
31872;SDS011;22407;42.820;23.374;2023-03-23T03:46:33;21.13;;;7.33;;
31872;SDS011;22407;42.820;23.374;2023-03-23T03:48:58;20.98;;;8.98;;
31872;SDS011;22407;42.820;23.374;2023-03-23T03:51:24;22.10;;;8.87;;
31872;SDS011;22407;42.820;23.374;2023-03-23T03:53:50;17.48;;;7.57;;
31872;SDS011;22407;42.820;23.374;2023-03-23T03:56:15;15.77;;;6.97;;
31872;SDS011;22407;42.820;23.374;2023-03-23T03:58:41;15.03;;;6.73;;
31872;SDS011;22407;42.820;23.374;2023-03-23T04:01:07;16.08;;;5.90;;
31872;SDS011;22407;42.820;23.374;2023-03-23T04:03:35;16.80;;;6.72;;
31872;SDS011;22407;42.820;23.374;2023-03-23T04:06:00;18.52;;;6.60;;
31872;SDS011;22407;42.820;23.374;2023-03-23T04:08:26;22.27;;;9.53;;
31872;SDS011;22407;42.820;23.374;2023-03-23T04:10:51;22.33;;;7.87;;
31872;SDS011;22407;42.820;23.374;2023-03-23T04:13:18;19.58;;;7.25;;
31872;SDS011;22407;42.820;23.374;2023-03-23T04:15:44;51.80;;;21.98;;
31872;SDS011;22407;42.820;23.374;2023-03-23T04:18:10;43.13;;;20.23;;
31872;SDS011;22407;42.820;23.374;2023-03-23T04:20:36;75.20;;;27.38;;
31872;SDS011;22407;42.820;23.374;2023-03-23T04:23:02;74.60;;;27.67;;
31872;SDS011;22407;42.820;23.374;2023-03-23T04:25:28;83.00;;;29.37;;
31872;SDS011;22407;42.820;23.374;2023-03-23T04:27:53;42.47;;;18.67;;
31872;SDS011;22407;42.820;23.374;2023-03-23T04:30:19;36.43;;;17.07;;
31872;SDS011;22407;42.820;23.374;2023-03-23T04:32:45;40.80;;;17.40;;
31872;SDS011;22407;42.820;23.374;2023-03-23T04:35:11;43.00;;;16.60;;
31872;SDS011;22407;42.820;23.374;2023-03-23T04:37:37;47.00;;;18.20;;
31872;SDS011;22407;42.820;23.374;2023-03-23T04:40:02;49.90;;;20.60;;
31872;SDS011;22407;42.820;23.374;2023-03-23T04:42:32;58.47;;;22.50;;
31872;SDS011;22407;42.820;23.374;2023-03-23T04:44:57;60.80;;;22.57;;
31872;SDS011;22407;42.820;23.374;2023-03-23T04:47:23;62.77;;;23.23;;
31872;SDS011;22407;42.820;23.374;2023-03-23T04:49:49;60.83;;;23.17;;
31872;SDS011;22407;42.820;23.374;2023-03-23T04:52:15;56.58;;;21.80;;
31872;SDS011;22407;42.820;23.374;2023-03-23T04:54:41;52.40;;;20.20;;
31872;SDS011;22407;42.820;23.374;2023-03-23T04:57:06;51.43;;;20.63;;
31872;SDS011;22407;42.820;23.374;2023-03-23T04:59:33;46.00;;;18.90;;
31872;SDS011;22407;42.820;23.374;2023-03-23T05:01:58;50.67;;;19.80;;
31872;SDS011;22407;42.820;23.374;2023-03-23T05:04:24;55.75;;;20.50;;
31872;SDS011;22407;42.820;23.374;2023-03-23T05:06:50;47.00;;;18.47;;
31872;SDS011;22407;42.820;23.374;2023-03-23T05:09:15;47.92;;;18.88;;
31872;SDS011;22407;42.820;23.374;2023-03-23T05:11:41;50.37;;;20.30;;
31872;SDS011;22407;42.820;23.374;2023-03-23T05:14:06;52.30;;;20.40;;
31872;SDS011;22407;42.820;23.374;2023-03-23T05:16:31;55.37;;;20.13;;
31872;SDS011;22407;42.820;23.374;2023-03-23T05:18:57;54.57;;;20.43;;
31872;SDS011;22407;42.820;23.374;2023-03-23T05:21:23;52.03;;;20.30;;
31872;SDS011;22407;42.820;23.374;2023-03-23T05:23:48;56.63;;;20.57;;
31872;SDS011;22407;42.820;23.374;2023-03-23T05:26:20;54.97;;;20.83;;
31872;SDS011;22407;42.820;23.374;2023-03-23T05:28:45;60.40;;;22.83;;
31872;SDS011;22407;42.820;23.374;2023-03-23T05:31:10;55.30;;;21.27;;
31872;SDS011;22407;42.820;23.374;2023-03-23T05:33:36;50.20;;;19.33;;
31872;SDS011;22407;42.820;23.374;2023-03-23T05:36:01;55.20;;;20.87;;
31872;SDS011;22407;42.820;23.374;2023-03-23T05:38:29;61.45;;;22.00;;
31872;SDS011;22407;42.820;23.374;2023-03-23T05:40:57;51.40;;;18.73;;
31872;SDS011;22407;42.820;23.374;2023-03-23T05:43:24;47.85;;;19.40;;
31872;SDS011;22407;42.820;23.374;2023-03-23T05:45:50;68.53;;;24.03;;
31872;SDS011;22407;42.820;23.374;2023-03-23T05:48:15;132.95;;;46.33;;
31872;SDS011;22407;42.820;23.374;2023-03-23T05:50:41;89.47;;;32.83;;
31872;SDS011;22407;42.820;23.374;2023-03-23T05:53:06;75.00;;;27.03;;
31872;SDS011;22407;42.820;23.374;2023-03-23T05:55:31;89.70;;;32.30;;
31872;SDS011;22407;42.820;23.374;2023-03-23T05:57:58;80.87;;;27.97;;
31872;SDS011;22407;42.820;23.374;2023-03-23T06:00:23;75.35;;;28.27;;
31872;SDS011;22407;42.820;23.374;2023-03-23T06:02:49;71.40;;;26.73;;
31872;SDS011;22407;42.820;23.374;2023-03-23T06:05:16;80.70;;;32.40;;
31872;SDS011;22407;42.820;23.374;2023-03-23T06:07:42;76.10;;;29.25;;
31872;SDS011;22407;42.820;23.374;2023-03-23T06:10:08;58.63;;;24.75;;
31872;SDS011;22407;42.820;23.374;2023-03-23T06:12:34;45.85;;;19.60;;
31872;SDS011;22407;42.820;23.374;2023-03-23T06:14:59;33.97;;;15.23;;
31872;SDS011;22407;42.820;23.374;2023-03-23T06:17:25;30.98;;;13.88;;
31872;SDS011;22407;42.820;23.374;2023-03-23T06:19:51;29.73;;;13.23;;
31872;SDS011;22407;42.820;23.374;2023-03-23T06:22:16;31.47;;;12.87;;
31872;SDS011;22407;42.820;23.374;2023-03-23T06:24:42;27.08;;;12.32;;
31872;SDS011;22407;42.820;23.374;2023-03-23T06:27:08;27.05;;;12.32;;
31872;SDS011;22407;42.820;23.374;2023-03-23T06:29:34;30.00;;;13.37;;
31872;SDS011;22407;42.820;23.374;2023-03-23T06:32:01;29.30;;;12.90;;
31872;SDS011;22407;42.820;23.374;2023-03-23T06:34:27;27.17;;;12.27;;
31872;SDS011;22407;42.820;23.374;2023-03-23T06:36:52;27.80;;;11.38;;
31872;SDS011;22407;42.820;23.374;2023-03-23T06:39:18;26.70;;;11.33;;
31872;SDS011;22407;42.820;23.374;2023-03-23T06:41:44;24.83;;;11.10;;
31872;SDS011;22407;42.820;23.374;2023-03-23T06:44:09;22.65;;;10.13;;
31872;SDS011;22407;42.820;23.374;2023-03-23T06:46:38;24.67;;;10.57;;
31872;SDS011;22407;42.820;23.374;2023-03-23T06:49:03;25.60;;;11.70;;
31872;SDS011;22407;42.820;23.374;2023-03-23T06:51:30;29.80;;;15.25;;
31872;SDS011;22407;42.820;23.374;2023-03-23T06:53:55;29.57;;;11.67;;
31872;SDS011;22407;42.820;23.374;2023-03-23T06:56:22;28.63;;;13.95;;
31872;SDS011;22407;42.820;23.374;2023-03-23T06:58:47;25.87;;;12.63;;
31872;SDS011;22407;42.820;23.374;2023-03-23T07:01:13;25.10;;;11.53;;
31872;SDS011;22407;42.820;23.374;2023-03-23T07:03:40;23.55;;;10.85;;
31872;SDS011;22407;42.820;23.374;2023-03-23T07:06:06;23.08;;;10.52;;
31872;SDS011;22407;42.820;23.374;2023-03-23T07:08:32;26.83;;;13.02;;
31872;SDS011;22407;42.820;23.374;2023-03-23T07:10:57;32.23;;;15.80;;
31872;SDS011;22407;42.820;23.374;2023-03-23T07:13:22;38.47;;;18.37;;
31872;SDS011;22407;42.820;23.374;2023-03-23T07:15:48;35.97;;;17.40;;
31872;SDS011;22407;42.820;23.374;2023-03-23T07:18:14;35.05;;;16.35;;
31872;SDS011;22407;42.820;23.374;2023-03-23T07:20:40;36.77;;;17.60;;
31872;SDS011;22407;42.820;23.374;2023-03-23T07:23:05;44.47;;;19.90;;
31872;SDS011;22407;42.820;23.374;2023-03-23T07:25:31;35.13;;;16.83;;
31872;SDS011;22407;42.820;23.374;2023-03-23T07:27:57;29.73;;;14.25;;
31872;SDS011;22407;42.820;23.374;2023-03-23T07:30:23;30.33;;;14.77;;
31872;SDS011;22407;42.820;23.374;2023-03-23T07:32:48;28.50;;;14.37;;
31872;SDS011;22407;42.820;23.374;2023-03-23T07:35:13;31.53;;;14.93;;
31872;SDS011;22407;42.820;23.374;2023-03-23T07:37:39;28.77;;;15.10;;
31872;SDS011;22407;42.820;23.374;2023-03-23T07:40:04;34.00;;;15.93;;
31872;SDS011;22407;42.820;23.374;2023-03-23T07:42:51;30.40;;;14.25;;
31872;SDS011;22407;42.820;23.374;2023-03-23T07:45:17;29.67;;;14.60;;
31872;SDS011;22407;42.820;23.374;2023-03-23T07:47:42;34.03;;;14.60;;
31872;SDS011;22407;42.820;23.374;2023-03-23T07:50:07;31.03;;;15.27;;
31872;SDS011;22407;42.820;23.374;2023-03-23T07:52:33;34.35;;;17.55;;
31872;SDS011;22407;42.820;23.374;2023-03-23T07:54:59;36.47;;;18.77;;
31872;SDS011;22407;42.820;23.374;2023-03-23T07:57:27;30.45;;;13.73;;
31872;SDS011;22407;42.820;23.374;2023-03-23T07:59:52;27.77;;;13.30;;
31872;SDS011;22407;42.820;23.374;2023-03-23T08:02:17;55.37;;;25.57;;
31872;SDS011;22407;42.820;23.374;2023-03-23T08:04:43;30.10;;;14.37;;
31872;SDS011;22407;42.820;23.374;2023-03-23T08:07:09;25.80;;;13.23;;
31872;SDS011;22407;42.820;23.374;2023-03-23T08:09:37;31.30;;;14.63;;
31872;SDS011;22407;42.820;23.374;2023-03-23T08:12:03;29.40;;;14.43;;
31872;SDS011;22407;42.820;23.374;2023-03-23T08:14:29;29.88;;;14.25;;
31872;SDS011;22407;42.820;23.374;2023-03-23T08:16:55;39.53;;;20.83;;
31872;SDS011;22407;42.820;23.374;2023-03-23T08:19:21;28.52;;;13.20;;
31872;SDS011;22407;42.820;23.374;2023-03-23T08:21:46;26.15;;;12.95;;
31872;SDS011;22407;42.820;23.374;2023-03-23T08:24:12;30.93;;;13.50;;
31872;SDS011;22407;42.820;23.374;2023-03-23T08:26:38;28.15;;;13.13;;
31872;SDS011;22407;42.820;23.374;2023-03-23T08:29:03;28.13;;;12.50;;
31872;SDS011;22407;42.820;23.374;2023-03-23T08:31:29;24.10;;;12.30;;
31872;SDS011;22407;42.820;23.374;2023-03-23T08:33:54;29.13;;;14.50;;
31872;SDS011;22407;42.820;23.374;2023-03-23T08:36:21;27.67;;;13.50;;
31872;SDS011;22407;42.820;23.374;2023-03-23T08:38:46;26.80;;;12.07;;
31872;SDS011;22407;42.820;23.374;2023-03-23T08:41:12;24.70;;;12.67;;
31872;SDS011;22407;42.820;23.374;2023-03-23T08:43:37;22.33;;;12.00;;
31872;SDS011;22407;42.820;23.374;2023-03-23T08:46:04;25.02;;;12.20;;
31872;SDS011;22407;42.820;23.374;2023-03-23T08:48:34;29.13;;;14.40;;
31872;SDS011;22407;42.820;23.374;2023-03-23T08:51:00;27.55;;;13.82;;
31872;SDS011;22407;42.820;23.374;2023-03-23T08:53:26;30.47;;;14.63;;
31872;SDS011;22407;42.820;23.374;2023-03-23T08:55:55;26.83;;;13.10;;
31872;SDS011;22407;42.820;23.374;2023-03-23T08:58:21;27.92;;;13.60;;
31872;SDS011;22407;42.820;23.374;2023-03-23T09:00:47;25.63;;;11.85;;
31872;SDS011;22407;42.820;23.374;2023-03-23T09:03:12;26.80;;;12.67;;
31872;SDS011;22407;42.820;23.374;2023-03-23T09:05:38;25.87;;;13.10;;
31872;SDS011;22407;42.820;23.374;2023-03-23T09:08:08;25.60;;;12.50;;
31872;SDS011;22407;42.820;23.374;2023-03-23T09:10:33;24.47;;;11.77;;
31872;SDS011;22407;42.820;23.374;2023-03-23T09:12:59;45.42;;;19.85;;
31872;SDS011;22407;42.820;23.374;2023-03-23T09:15:24;21.63;;;11.00;;
31872;SDS011;22407;42.820;23.374;2023-03-23T09:17:51;27.57;;;13.73;;
31872;SDS011;22407;42.820;23.374;2023-03-23T09:20:17;24.52;;;12.73;;
31872;SDS011;22407;42.820;23.374;2023-03-23T09:22:44;35.33;;;18.17;;
31872;SDS011;22407;42.820;23.374;2023-03-23T09:25:11;24.13;;;11.30;;
31872;SDS011;22407;42.820;23.374;2023-03-23T09:27:36;26.90;;;12.43;;
31872;SDS011;22407;42.820;23.374;2023-03-23T09:30:04;23.30;;;11.35;;
31872;SDS011;22407;42.820;23.374;2023-03-23T09:32:32;26.00;;;12.40;;
31872;SDS011;22407;42.820;23.374;2023-03-23T09:34:57;24.43;;;11.00;;
31872;SDS011;22407;42.820;23.374;2023-03-23T09:37:23;23.20;;;11.47;;
31872;SDS011;22407;42.820;23.374;2023-03-23T09:39:48;32.30;;;14.70;;
31872;SDS011;22407;42.820;23.374;2023-03-23T09:49:57;19.50;;;9.07;;
31872;SDS011;22407;42.820;23.374;2023-03-23T09:52:26;15.48;;;7.65;;
31872;SDS011;22407;42.820;23.374;2023-03-23T09:54:53;14.77;;;6.57;;
31872;SDS011;22407;42.820;23.374;2023-03-23T09:59:57;23.52;;;10.50;;
31872;SDS011;22407;42.820;23.374;2023-03-23T10:05:12;17.20;;;9.23;;
31872;SDS011;22407;42.820;23.374;2023-03-23T10:07:40;14.18;;;7.85;;
31872;SDS011;22407;42.820;23.374;2023-03-23T10:10:05;18.63;;;9.27;;
31872;SDS011;22407;42.820;23.374;2023-03-23T10:12:52;15.15;;;8.02;;
31872;SDS011;22407;42.820;23.374;2023-03-23T10:15:20;15.07;;;7.47;;
31872;SDS011;22407;42.820;23.374;2023-03-23T10:20:55;18.15;;;9.38;;
31872;SDS011;22407;42.820;23.374;2023-03-23T10:23:34;15.77;;;8.27;;
31872;SDS011;22407;42.820;23.374;2023-03-23T10:26:09;16.52;;;7.47;;
31872;SDS011;22407;42.820;23.374;2023-03-23T10:28:38;16.17;;;7.83;;
31872;SDS011;22407;42.820;23.374;2023-03-23T10:31:05;15.30;;;7.55;;
31872;SDS011;22407;42.820;23.374;2023-03-23T10:33:40;15.38;;;7.75;;
31872;SDS011;22407;42.820;23.374;2023-03-23T10:36:15;16.65;;;8.48;;
31872;SDS011;22407;42.820;23.374;2023-03-23T10:38:47;17.83;;;8.05;;
31872;SDS011;22407;42.820;23.374;2023-03-23T10:41:14;15.93;;;7.50;;
31872;SDS011;22407;42.820;23.374;2023-03-23T10:43:41;16.17;;;8.15;;
31872;SDS011;22407;42.820;23.374;2023-03-23T10:48:39;14.90;;;7.30;;
31872;SDS011;22407;42.820;23.374;2023-03-23T10:51:05;19.03;;;9.47;;
31872;SDS011;22407;42.820;23.374;2023-03-23T10:53:35;14.10;;;7.47;;
31872;SDS011;22407;42.820;23.374;2023-03-23T10:56:02;13.93;;;7.13;;
31872;SDS011;22407;42.820;23.374;2023-03-23T10:58:34;14.47;;;7.50;;
31872;SDS011;22407;42.820;23.374;2023-03-23T11:01:01;28.10;;;12.40;;
31872;SDS011;22407;42.820;23.374;2023-03-23T11:05:54;16.15;;;7.70;;
31872;SDS011;22407;42.820;23.374;2023-03-23T11:08:27;13.30;;;7.80;;
31872;SDS011;22407;42.820;23.374;2023-03-23T11:10:59;13.77;;;7.20;;
31872;SDS011;22407;42.820;23.374;2023-03-23T11:13:32;15.93;;;8.20;;
31872;SDS011;22407;42.820;23.374;2023-03-23T11:15:57;16.47;;;8.57;;
31872;SDS011;22407;42.820;23.374;2023-03-23T11:18:24;14.73;;;7.57;;
31872;SDS011;22407;42.820;23.374;2023-03-23T11:20:54;18.87;;;8.10;;
31872;SDS011;22407;42.820;23.374;2023-03-23T11:28:22;18.13;;;10.35;;
31872;SDS011;22407;42.820;23.374;2023-03-23T11:30:52;13.98;;;7.40;;
31872;SDS011;22407;42.820;23.374;2023-03-23T11:33:17;13.57;;;6.85;;
31872;SDS011;22407;42.820;23.374;2023-03-23T11:35:44;18.20;;;8.50;;
31872;SDS011;22407;42.820;23.374;2023-03-23T11:38:20;15.57;;;7.20;;
31872;SDS011;22407;42.820;23.374;2023-03-23T11:40:50;11.73;;;6.97;;
31872;SDS011;22407;42.820;23.374;2023-03-23T11:43:20;12.05;;;6.00;;
31872;SDS011;22407;42.820;23.374;2023-03-23T11:45:51;12.30;;;6.45;;
31872;SDS011;22407;42.820;23.374;2023-03-23T11:49:20;11.65;;;6.15;;
31872;SDS011;22407;42.820;23.374;2023-03-23T11:56:27;13.45;;;6.57;;
31872;SDS011;22407;42.820;23.374;2023-03-23T11:58:54;14.25;;;8.63;;
31872;SDS011;22407;42.820;23.374;2023-03-23T12:01:36;12.23;;;6.88;;
31872;SDS011;22407;42.820;23.374;2023-03-23T12:09:06;14.17;;;6.77;;
31872;SDS011;22407;42.820;23.374;2023-03-23T12:17:07;10.98;;;5.80;;
31872;SDS011;22407;42.820;23.374;2023-03-23T12:37:46;13.70;;;7.97;;
31872;SDS011;22407;42.820;23.374;2023-03-23T12:40:32;10.10;;;5.50;;
31872;SDS011;22407;42.820;23.374;2023-03-23T12:43:09;10.67;;;5.77;;
31872;SDS011;22407;42.820;23.374;2023-03-23T12:48:07;11.25;;;5.75;;
31872;SDS011;22407;42.820;23.374;2023-03-23T12:55:48;10.57;;;5.45;;
31872;SDS011;22407;42.820;23.374;2023-03-23T12:58:18;10.33;;;5.33;;
31872;SDS011;22407;42.820;23.374;2023-03-23T13:00:59;8.65;;;4.30;;
31872;SDS011;22407;42.820;23.374;2023-03-23T13:08:28;8.38;;;4.82;;
31872;SDS011;22407;42.820;23.374;2023-03-23T13:10:56;10.07;;;4.60;;
31872;SDS011;22407;42.820;23.374;2023-03-23T13:13:39;9.55;;;4.90;;
31872;SDS011;22407;42.820;23.374;2023-03-23T13:18:49;8.48;;;4.63;;
31872;SDS011;22407;42.820;23.374;2023-03-23T13:23:45;7.60;;;4.23;;
31872;SDS011;22407;42.820;23.374;2023-03-23T13:26:12;8.63;;;4.25;;
31872;SDS011;22407;42.820;23.374;2023-03-23T13:36:43;8.02;;;3.85;;
31872;SDS011;22407;42.820;23.374;2023-03-23T13:39:19;8.85;;;4.30;;
31872;SDS011;22407;42.820;23.374;2023-03-23T13:41:45;10.40;;;4.23;;
31872;SDS011;22407;42.820;23.374;2023-03-23T13:44:16;10.48;;;4.38;;
31872;SDS011;22407;42.820;23.374;2023-03-23T13:46:41;8.02;;;4.30;;
31872;SDS011;22407;42.820;23.374;2023-03-23T13:51:47;8.32;;;4.38;;
31872;SDS011;22407;42.820;23.374;2023-03-23T13:57:48;9.85;;;5.00;;
31872;SDS011;22407;42.820;23.374;2023-03-23T13:59:34;9.75;;;4.93;;
31872;SDS011;22407;42.820;23.374;2023-03-23T14:02:27;11.02;;;5.15;;
31872;SDS011;22407;42.820;23.374;2023-03-23T14:04:46;8.83;;;4.80;;
31872;SDS011;22407;42.820;23.374;2023-03-23T14:07:15;12.30;;;6.50;;
31872;SDS011;22407;42.820;23.374;2023-03-23T14:09:44;10.13;;;4.80;;
31872;SDS011;22407;42.820;23.374;2023-03-23T14:12:17;12.25;;;5.35;;
31872;SDS011;22407;42.820;23.374;2023-03-23T14:14:44;12.18;;;5.60;;
31872;SDS011;22407;42.820;23.374;2023-03-23T14:19:39;13.32;;;5.63;;
31872;SDS011;22407;42.820;23.374;2023-03-23T14:22:14;12.07;;;5.95;;
31872;SDS011;22407;42.820;23.374;2023-03-23T14:24:41;11.50;;;5.85;;
31872;SDS011;22407;42.820;23.374;2023-03-23T14:29:38;10.75;;;5.57;;
31872;SDS011;22407;42.820;23.374;2023-03-23T14:32:05;10.07;;;5.00;;
31872;SDS011;22407;42.820;23.374;2023-03-23T14:34:31;11.77;;;5.15;;
31872;SDS011;22407;42.820;23.374;2023-03-23T14:36:57;9.95;;;5.40;;
31872;SDS011;22407;42.820;23.374;2023-03-23T14:39:30;11.73;;;6.05;;
31872;SDS011;22407;42.820;23.374;2023-03-23T14:41:56;11.50;;;5.90;;
31872;SDS011;22407;42.820;23.374;2023-03-23T14:44:28;11.05;;;5.82;;
31872;SDS011;22407;42.820;23.374;2023-03-23T14:46:54;13.23;;;6.93;;
31872;SDS011;22407;42.820;23.374;2023-03-23T14:49:23;12.90;;;6.07;;
31872;SDS011;22407;42.820;23.374;2023-03-23T14:51:51;13.55;;;6.93;;
31872;SDS011;22407;42.820;23.374;2023-03-23T14:54:19;12.77;;;5.87;;
31872;SDS011;22407;42.820;23.374;2023-03-23T14:56:46;36.22;;;16.38;;
31872;SDS011;22407;42.820;23.374;2023-03-23T14:59:12;20.63;;;9.48;;
31872;SDS011;22407;42.820;23.374;2023-03-23T15:01:37;21.17;;;9.80;;
31872;SDS011;22407;42.820;23.374;2023-03-23T15:04:12;14.18;;;7.07;;
31872;SDS011;22407;42.820;23.374;2023-03-23T15:06:39;13.13;;;5.78;;
31872;SDS011;22407;42.820;23.374;2023-03-23T15:09:13;12.90;;;6.10;;
31872;SDS011;22407;42.820;23.374;2023-03-23T15:11:39;20.20;;;9.95;;
31872;SDS011;22407;42.820;23.374;2023-03-23T15:14:18;19.73;;;8.77;;
31872;SDS011;22407;42.820;23.374;2023-03-23T15:16:51;17.10;;;8.55;;
31872;SDS011;22407;42.820;23.374;2023-03-23T15:19:36;22.27;;;8.77;;
31872;SDS011;22407;42.820;23.374;2023-03-23T15:22:07;23.03;;;9.43;;
31872;SDS011;22407;42.820;23.374;2023-03-23T15:24:39;16.40;;;7.20;;
31872;SDS011;22407;42.820;23.374;2023-03-23T15:27:23;13.82;;;6.70;;
31872;SDS011;22407;42.820;23.374;2023-03-23T15:32:19;11.60;;;5.80;;
31872;SDS011;22407;42.820;23.374;2023-03-23T15:34:45;11.70;;;5.28;;
31872;SDS011;22407;42.820;23.374;2023-03-23T15:37:20;15.70;;;8.17;;
31872;SDS011;22407;42.820;23.374;2023-03-23T15:39:46;12.45;;;6.40;;
31872;SDS011;22407;42.820;23.374;2023-03-23T15:47:43;14.85;;;7.43;;
31872;SDS011;22407;42.820;23.374;2023-03-23T15:50:14;12.63;;;6.15;;
31872;SDS011;22407;42.820;23.374;2023-03-23T15:52:40;13.70;;;5.00;;
31872;SDS011;22407;42.820;23.374;2023-03-23T15:58:00;12.35;;;5.30;;
31872;SDS011;22407;42.820;23.374;2023-03-23T16:00:26;12.93;;;6.30;;
31872;SDS011;22407;42.820;23.374;2023-03-23T16:02:59;13.13;;;5.63;;
31872;SDS011;22407;42.820;23.374;2023-03-23T16:05:25;11.73;;;5.00;;
31872;SDS011;22407;42.820;23.374;2023-03-23T16:07:50;11.60;;;4.87;;
31872;SDS011;22407;42.820;23.374;2023-03-23T16:10:17;19.47;;;7.57;;
31872;SDS011;22407;42.820;23.374;2023-03-23T16:12:42;29.25;;;11.38;;
31872;SDS011;22407;42.820;23.374;2023-03-23T16:15:08;13.70;;;5.37;;
31872;SDS011;22407;42.820;23.374;2023-03-23T16:17:33;12.07;;;5.72;;
31872;SDS011;22407;42.820;23.374;2023-03-23T16:19:58;13.80;;;6.23;;
31872;SDS011;22407;42.820;23.374;2023-03-23T16:22:24;13.67;;;6.70;;
31872;SDS011;22407;42.820;23.374;2023-03-23T16:24:49;15.43;;;6.20;;
31872;SDS011;22407;42.820;23.374;2023-03-23T16:27:15;13.87;;;6.00;;
31872;SDS011;22407;42.820;23.374;2023-03-23T16:29:41;13.97;;;6.53;;